Time;durP1;ratioP1;P1;durP2;ratioP2;P2;SDS_P1;SDS_P2;PMS_P1;PMS_P2;Temp;Humidity;BMP_temperature;BMP_pressure;BME280_temperature;BME280_humidity;BME280_pressure;Samples;Min_cycle;Max_cycle;Signal;HPM_P1;HPM_P2
2021/05/09 00:01:15;;;;;;;2.50;1.70;;;22.10;46.50;;;;;;5045676;28;20778;-84
2021/05/09 00:03:41;;;;;;;2.63;1.87;;;22.20;46.60;;;;;;5027652;28;20418;-84
2021/05/09 00:06:07;;;;;;;2.57;1.50;;;22.20;46.60;;;;;;5045473;28;20418;-84
2021/05/09 00:08:32;;;;;;;3.77;1.60;;;22.20;46.60;;;;;;5027179;28;20243;-84
2021/05/09 00:10:58;;;;;;;2.20;1.70;;;22.20;46.60;;;;;;5026888;28;20683;-84
2021/05/09 00:13:26;;;;;;;1.70;1.60;;;22.10;46.60;;;;;;5044961;28;20175;-84
2021/05/09 00:15:52;;;;;;;2.57;1.80;;;22.10;46.60;;;;;;5026825;28;20211;-84
2021/05/09 00:18:18;;;;;;;2.00;1.50;;;22.20;46.70;;;;;;5026163;28;20410;-84
2021/05/09 00:20:44;;;;;;;2.33;2.13;;;22.10;46.60;;;;;;5027174;28;20194;-84
2021/05/09 00:23:10;;;;;;;2.40;1.83;;;22.10;46.60;;;;;;5045136;28;20430;-84
2021/05/09 00:25:35;;;;;;;2.57;2.27;;;22.20;46.60;;;;;;5027667;28;20172;-84
2021/05/09 00:28:01;;;;;;;2.57;1.90;;;22.10;46.60;;;;;;5045268;28;20414;-84
2021/05/09 00:30:27;;;;;;;2.33;1.80;;;22.10;46.60;;;;;;5026881;28;20179;-83
2021/05/09 00:32:53;;;;;;;2.93;2.20;;;22.10;46.60;;;;;;5043976;28;20179;-84
2021/05/09 00:35:20;;;;;;;2.93;1.90;;;22.20;46.70;;;;;;5026569;28;20200;-84
2021/05/09 00:37:45;;;;;;;2.13;1.80;;;22.10;46.60;;;;;;5027063;28;20418;-84
2021/05/09 00:40:11;;;;;;;2.23;1.87;;;22.10;46.60;;;;;;5027286;28;20417;-84
2021/05/09 00:42:37;;;;;;;1.90;1.70;;;22.10;46.60;;;;;;5026049;28;20270;-84
2021/05/09 00:45:06;;;;;;;1.80;1.70;;;22.20;46.70;;;;;;5026026;28;20502;-84
2021/05/09 00:47:34;;;;;;;3.63;1.60;;;22.10;46.60;;;;;;5044238;28;20422;-84
2021/05/09 00:50:00;;;;;;;2.67;1.50;;;22.10;46.60;;;;;;5043633;28;20411;-84
2021/05/09 00:52:26;;;;;;;2.17;1.60;;;22.10;46.70;;;;;;5043745;28;20486;-84
2021/05/09 00:54:58;;;;;;;2.20;1.63;;;22.20;46.70;;;;;;5026182;28;20208;-83
2021/05/09 00:57:25;;;;;;;2.07;1.40;;;22.10;46.60;;;;;;5025896;28;20419;-84
2021/05/09 00:59:52;;;;;;;2.10;1.70;;;22.10;46.60;;;;;;5044493;28;20482;-83
2021/05/09 01:02:18;;;;;;;1.50;1.30;;;22.20;46.70;;;;;;5026104;28;20418;-83
2021/05/09 01:04:45;;;;;;;1.90;1.40;;;22.10;46.60;;;;;;5043951;28;20449;-83
2021/05/09 01:07:13;;;;;;;1.57;1.47;;;22.10;46.60;;;;;;5044946;28;20410;-83
2021/05/09 01:09:39;;;;;;;1.60;1.50;;;22.10;46.60;;;;;;5028966;28;20486;-85
2021/05/09 01:12:05;;;;;;;1.93;1.43;;;22.20;46.70;;;;;;5044529;28;20414;-84
2021/05/09 01:14:31;;;;;;;1.60;1.50;;;22.10;46.60;;;;;;5046400;28;20313;-84
2021/05/09 01:16:57;;;;;;;1.83;1.53;;;22.20;46.70;;;;;;5026650;28;20422;-84
2021/05/09 01:19:25;;;;;;;1.70;1.60;;;22.20;46.70;;;;;;5043540;28;20161;-84
2021/05/09 01:21:51;;;;;;;1.80;1.47;;;22.10;46.60;;;;;;5046902;28;20164;-84
2021/05/09 01:24:16;;;;;;;1.43;1.30;;;22.10;46.60;;;;;;5026153;28;20433;-84
2021/05/09 01:26:42;;;;;;;1.90;1.33;;;22.10;46.70;;;;;;5043788;28;20399;-85
2021/05/09 01:29:08;;;;;;;3.07;1.70;;;22.10;46.60;;;;;;5042954;28;20175;-84
2021/05/09 01:31:34;;;;;;;1.90;1.63;;;22.20;46.70;;;;;;5026260;28;20581;-84
2021/05/09 01:33:59;;;;;;;1.33;1.23;;;22.10;46.60;;;;;;5025114;28;20172;-84
2021/05/09 01:39:48;;;;;;;1.80;1.53;;;22.10;46.60;;;;;;5043173;28;20303;-84
2021/05/09 01:42:15;;;;;;;2.83;1.60;;;22.10;46.70;;;;;;5025208;28;20421;-84
2021/05/09 01:44:55;;;;;;;1.63;1.53;;;22.10;46.70;;;;;;5025057;28;20418;-84
2021/05/09 01:47:21;;;;;;;1.47;1.30;;;22.10;46.70;;;;;;5024965;28;20420;-85
2021/05/09 01:49:48;;;;;;;2.00;1.37;;;22.10;46.70;;;;;;5025428;28;20557;-84
2021/05/09 01:52:14;;;;;;;1.60;1.47;;;22.10;46.80;;;;;;5024935;28;20422;-84
2021/05/09 01:54:39;;;;;;;2.20;1.50;;;22.00;46.70;;;;;;5024815;28;20493;-84
2021/05/09 01:57:05;;;;;;;1.80;1.23;;;22.00;46.80;;;;;;5042894;28;20172;-85
2021/05/09 01:59:31;;;;;;;2.70;1.60;;;22.00;46.80;;;;;;5043197;28;20167;-84
2021/05/09 02:01:57;;;;;;;2.00;1.47;;;22.00;46.80;;;;;;5042261;28;20542;-84
2021/05/09 02:04:23;;;;;;;2.20;1.40;;;22.00;46.90;;;;;;5042520;28;20164;-84
2021/05/09 02:06:49;;;;;;;2.00;1.40;;;22.00;46.90;;;;;;5024452;28;20453;-84
2021/05/09 02:09:15;;;;;;;2.10;1.33;;;22.00;46.90;;;;;;5042566;28;20175;-84
2021/05/09 02:11:40;;;;;;;1.63;1.53;;;22.00;46.90;;;;;;5042235;28;20214;-84
2021/05/09 02:17:28;;;;;;;2.03;1.27;;;22.00;46.90;;;;;;5042538;28;20159;-85
2021/05/09 02:19:53;;;;;;;2.17;1.70;;;21.90;46.90;;;;;;5042667;28;20474;-85
2021/05/09 02:22:19;;;;;;;2.60;1.60;;;22.00;47.00;;;;;;5047896;28;20194;-82
2021/05/09 02:24:45;;;;;;;2.23;1.40;;;22.00;47.10;;;;;;5053100;28;20674;-82
2021/05/09 02:27:16;;;;;;;1.50;1.27;;;21.90;47.00;;;;;;5035642;28;20457;-82
2021/05/09 02:29:47;;;;;;;2.43;1.83;;;21.90;47.00;;;;;;5035449;28;20433;-82
2021/05/09 02:32:15;;;;;;;1.73;1.43;;;21.90;47.00;;;;;;5017624;28;20426;-81
2021/05/09 02:34:42;;;;;;;1.83;1.40;;;21.80;46.90;;;;;;5051803;28;20450;-82
2021/05/09 02:37:09;;;;;;;1.80;1.40;;;21.90;47.00;;;;;;5051591;28;20440;-82
2021/05/09 02:39:37;;;;;;;2.17;1.60;;;21.90;47.00;;;;;;5033709;28;20432;-82
2021/05/09 02:42:10;;;;;;;1.93;1.60;;;21.90;47.00;;;;;;5033157;28;20951;-82
2021/05/09 02:44:40;;;;;;;1.30;1.20;;;21.90;47.50;;;;;;5033771;28;20453;-82
2021/05/09 02:47:10;;;;;;;2.13;1.50;;;21.90;47.00;;;;;;5052095;28;20497;-82
2021/05/09 02:50:03;;;;;;;1.70;1.27;;;21.90;47.00;;;;;;5020713;28;20430;-81
2021/05/09 02:52:48;;;;;;;1.93;1.50;;;21.90;47.10;;;;;;5037594;28;20525;-82
2021/05/09 02:55:14;;;;;;;1.87;1.63;;;21.90;47.10;;;;;;5034673;28;20489;-82
2021/05/09 02:57:42;;;;;;;2.83;1.50;;;21.90;47.60;;;;;;5035057;28;20426;-82
2021/05/09 03:00:10;;;;;;;3.07;1.60;;;21.90;47.10;;;;;;5035391;28;20422;-81
2021/05/09 03:02:42;;;;;;;2.30;1.70;;;21.80;47.00;;;;;;5053734;28;20421;-81
2021/05/09 03:05:09;;;;;;;1.57;1.27;;;21.90;47.10;;;;;;5036969;28;20415;-81
2021/05/09 03:07:37;;;;;;;1.80;1.53;;;21.90;47.10;;;;;;5020004;28;20437;-82
2021/05/09 03:10:09;;;;;;;1.50;1.37;;;21.80;47.00;;;;;;5037549;28;20436;-82
2021/05/09 03:12:35;;;;;;;2.17;1.60;;;21.90;47.10;;;;;;5054300;28;20418;-81
2021/05/09 03:15:06;;;;;;;2.00;1.60;;;21.90;47.10;;;;;;5055227;28;20474;-82
2021/05/09 03:17:33;;;;;;;1.63;1.27;;;21.80;47.00;;;;;;5022261;28;20421;-82
2021/05/09 03:20:01;;;;;;;1.80;1.30;;;21.90;47.70;;;;;;5037473;28;20422;-82
2021/05/09 03:22:52;;;;;;;1.93;1.23;;;21.80;47.00;;;;;;5038647;28;20437;-83
2021/05/09 03:28:53;;;;;;;1.90;1.50;;;21.90;47.10;;;;;;5056222;28;20398;-82
2021/05/09 03:31:24;;;;;;;1.40;1.30;;;21.80;47.70;;;;;;5038079;28;20410;-82
2021/05/09 03:33:56;;;;;;;1.87;1.30;;;21.80;47.10;;;;;;5035926;28;20411;-82
2021/05/09 03:36:35;;;;;;;2.33;1.83;;;21.80;47.10;;;;;;5037502;28;20501;-82
2021/05/09 03:39:05;;;;;;;2.00;1.83;;;21.90;47.20;;;;;;5019986;28;20414;-82
2021/05/09 03:45:01;;;;;;;3.10;1.40;;;21.90;47.10;;;;;;5053382;28;20382;-82
2021/05/09 03:47:33;;;;;;;1.40;1.10;;;21.80;47.10;;;;;;5036863;28;20418;-82
2021/05/09 03:50:06;;;;;;;1.93;1.50;;;21.80;47.20;;;;;;5044079;28;20422;-82
2021/05/09 03:52:35;;;;;;;2.07;1.67;;;21.80;47.20;;;;;;5038981;28;20478;-81
2021/05/09 03:55:06;;;;;;;1.80;1.50;;;21.80;47.20;;;;;;5042458;28;20525;-82
2021/05/09 03:57:41;;;;;;;1.63;1.40;;;21.80;47.20;;;;;;5058606;28;20406;-82
2021/05/09 04:04:13;;;;;;;1.67;1.17;;;21.80;47.10;;;;;;4998344;28;20421;-82
2021/05/09 04:07:04;;;;;;;1.63;1.40;;;21.70;47.10;;;;;;4983830;28;20423;-82
2021/05/09 04:09:48;;;;;;;1.87;1.50;;;21.80;47.80;;;;;;4981623;28;20425;-82
2021/05/09 04:12:23;;;;;;;1.80;1.50;;;21.80;47.30;;;;;;4982071;28;20464;-81
2021/05/09 04:14:54;;;;;;;1.93;1.53;;;21.70;47.20;;;;;;4982071;28;20503;-81
2021/05/09 04:17:21;;;;;;;1.43;1.27;;;21.80;47.30;;;;;;4998493;28;20416;-81
2021/05/09 04:20:07;;;;;;;1.93;1.27;;;21.80;47.30;;;;;;4981964;28;20412;-81
2021/05/09 04:22:37;;;;;;;1.30;1.20;;;21.80;47.30;;;;;;4981857;28;20420;-82
2021/05/09 04:25:11;;;;;;;1.30;1.20;;;21.80;47.30;;;;;;4964695;28;20506;-82
2021/05/09 04:28:06;;;;;;;1.37;1.27;;;21.70;47.20;;;;;;4988583;28;20449;-81
2021/05/09 04:30:42;;;;;;;2.00;1.50;;;21.70;47.20;;;;;;4993906;28;20493;-82
2021/05/09 04:33:19;;;;;;;1.33;1.23;;;21.80;47.30;;;;;;5041358;28;20422;-82
2021/05/09 04:35:48;;;;;;;1.77;1.30;;;21.80;47.20;;;;;;5057263;28;20448;-82
2021/05/09 04:38:18;;;;;;;2.00;1.20;;;21.70;47.20;;;;;;5038604;28;20426;-82
2021/05/09 04:40:45;;;;;;;1.77;1.67;;;21.80;47.20;;;;;;5055664;28;20456;-81
2021/05/09 04:43:21;;;;;;;1.53;1.23;;;21.80;47.20;;;;;;5037126;28;20442;-82
2021/05/09 04:45:51;;;;;;;2.30;1.57;;;21.80;47.10;;;;;;5032238;28;20418;-82
2021/05/09 04:48:18;;;;;;;2.03;1.50;;;21.80;47.10;;;;;;5043432;28;20407;-85
2021/05/09 04:50:44;;;;;;;2.20;1.30;;;21.90;47.10;;;;;;5025005;28;20422;-85
2021/05/09 04:53:30;;;;;;;1.33;1.20;;;21.90;47.10;;;;;;5025519;28;20433;-85
2021/05/09 04:56:02;;;;;;;1.77;1.50;;;21.90;47.00;;;;;;5025425;28;20458;-84
2021/05/09 04:58:29;;;;;;;2.17;1.60;;;21.90;47.00;;;;;;5043209;28;20409;-83
2021/05/09 05:01:00;;;;;;;1.43;1.30;;;21.90;46.90;;;;;;5043227;28;20402;-84
2021/05/09 05:03:30;;;;;;;1.87;1.10;;;21.90;47.50;;;;;;5042911;28;20394;-84
2021/05/09 05:05:56;;;;;;;1.60;1.30;;;21.90;46.90;;;;;;5045045;28;20406;-82
2021/05/09 05:08:23;;;;;;;1.30;1.20;;;21.90;46.80;;;;;;5031980;28;20563;-82
2021/05/09 05:10:50;;;;;;;1.13;1.03;;;22.00;46.90;;;;;;5049750;28;20402;-82
2021/05/09 05:13:21;;;;;;;1.83;1.20;;;22.00;46.90;;;;;;5049540;28;20418;-82
2021/05/09 05:15:49;;;;;;;1.83;1.03;;;22.00;46.90;;;;;;5049266;28;20454;-82
2021/05/09 05:18:16;;;;;;;1.40;1.20;;;22.00;47.00;;;;;;5049090;28;20414;-82
2021/05/09 05:20:43;;;;;;;1.83;1.40;;;22.00;47.00;;;;;;5049490;28;20430;-83
2021/05/09 05:23:13;;;;;;;1.43;1.30;;;22.10;47.00;;;;;;5049443;28;20434;-83
2021/05/09 05:25:39;;;;;;;2.90;1.47;;;22.10;47.00;;;;;;5032284;28;20427;-83
2021/05/09 05:28:06;;;;;;;2.10;1.37;;;22.10;47.00;;;;;;5050439;28;20426;-82
2021/05/09 05:30:32;;;;;;;1.30;1.13;;;22.10;47.00;;;;;;5032193;28;20482;-81
2021/05/09 05:32:58;;;;;;;1.63;1.53;;;22.10;46.90;;;;;;5031970;28;20411;-82
2021/05/09 05:35:25;;;;;;;1.33;1.03;;;22.10;47.00;;;;;;5032398;28;20462;-82
2021/05/09 05:37:52;;;;;;;2.00;1.47;;;22.20;47.00;;;;;;5049857;28;20486;-83
2021/05/09 05:40:18;;;;;;;1.40;1.10;;;22.10;46.90;;;;;;5049548;28;20496;-83
2021/05/09 05:42:46;;;;;;;1.20;1.00;;;22.10;46.90;;;;;;5050592;28;20414;-83
2021/05/09 05:45:12;;;;;;;1.20;1.03;;;22.20;47.00;;;;;;5049884;28;20407;-81
2021/05/09 05:47:38;;;;;;;1.20;0.90;;;22.20;47.00;;;;;;5049372;28;20522;-82
2021/05/09 05:50:10;;;;;;;1.97;1.43;;;22.20;47.00;;;;;;5032394;28;20425;-82
2021/05/09 05:52:39;;;;;;;1.33;1.23;;;22.20;46.90;;;;;;5012471;28;20675;-82
2021/05/09 05:55:06;;;;;;;2.13;1.60;;;22.20;47.00;;;;;;5032024;28;20461;-82
2021/05/09 05:57:31;;;;;;;1.37;1.10;;;22.20;46.90;;;;;;5031953;28;20437;-82
2021/05/09 05:59:57;;;;;;;1.60;1.17;;;22.20;47.00;;;;;;5031768;28;20433;-82
2021/05/09 06:02:23;;;;;;;1.30;1.20;;;22.20;46.90;;;;;;5049923;28;20183;-83
2021/05/09 06:04:49;;;;;;;1.30;1.00;;;22.20;47.00;;;;;;5030944;28;20200;-83
2021/05/09 06:07:18;;;;;;;1.20;1.03;;;22.20;47.00;;;;;;5032960;28;20206;-82
2021/05/09 06:09:44;;;;;;;1.73;1.10;;;22.20;46.90;;;;;;5048325;28;20194;-83
2021/05/09 06:12:10;;;;;;;1.50;1.10;;;22.20;47.50;;;;;;5049074;28;20493;-83
2021/05/09 06:14:35;;;;;;;1.00;0.90;;;22.20;47.00;;;;;;5030998;28;20191;-82
2021/05/09 06:17:01;;;;;;;1.77;1.67;;;22.20;47.50;;;;;;5030099;28;20175;-82
2021/05/09 06:19:27;;;;;;;1.67;1.17;;;22.20;47.00;;;;;;5048844;28;20178;-83
2021/05/09 06:21:53;;;;;;;1.47;1.07;;;22.20;46.90;;;;;;5031150;28;20179;-83
2021/05/09 06:24:18;;;;;;;1.90;1.50;;;22.20;46.90;;;;;;5028517;28;20203;-83
2021/05/09 06:26:44;;;;;;;1.30;1.20;;;22.20;46.90;;;;;;5046190;28;20179;-83
2021/05/09 06:29:10;;;;;;;2.30;1.40;;;22.20;46.90;;;;;;5045013;28;20680;-83
2021/05/09 06:31:36;;;;;;;1.30;1.20;;;22.30;47.00;;;;;;5045263;28;20176;-83
2021/05/09 06:34:02;;;;;;;2.20;1.40;;;22.30;47.00;;;;;;5045188;28;20194;-83
2021/05/09 06:36:28;;;;;;;3.83;1.43;;;22.30;47.00;;;;;;5045089;28;20194;-83
2021/05/09 06:38:53;;;;;;;2.03;1.20;;;22.30;47.00;;;;;;5045868;28;20411;-82
2021/05/09 06:41:20;;;;;;;2.77;1.30;;;22.30;47.50;;;;;;5026809;28;20178;-83
2021/05/09 06:43:47;;;;;;;1.97;1.43;;;22.30;47.00;;;;;;5045002;28;20641;-82
2021/05/09 06:46:18;;;;;;;1.90;1.27;;;22.30;47.00;;;;;;5027870;28;20525;-82
2021/05/09 06:48:44;;;;;;;1.57;1.10;;;22.30;47.00;;;;;;5045054;28;20433;-81
2021/05/09 06:51:10;;;;;;;2.00;1.20;;;22.30;47.60;;;;;;5020160;28;20423;-83
2021/05/09 06:53:36;;;;;;;1.20;1.07;;;22.30;47.10;;;;;;5045233;28;20290;-83
2021/05/09 06:56:02;;;;;;;2.33;1.50;;;22.30;47.10;;;;;;5045394;28;20454;-83
2021/05/09 06:58:28;;;;;;;1.57;1.23;;;22.30;47.10;;;;;;5050220;28;20190;-82
2021/05/09 07:00:55;;;;;;;1.33;1.23;;;22.30;47.20;;;;;;5045905;28;20402;-82
2021/05/09 07:03:24;;;;;;;1.77;1.30;;;22.30;47.20;;;;;;5046904;28;20176;-82
2021/05/09 07:05:49;;;;;;;1.90;1.20;;;22.30;47.20;;;;;;5046860;28;20406;-82
2021/05/09 07:08:18;;;;;;;2.50;1.83;;;22.30;47.30;;;;;;5047108;28;20505;-82
2021/05/09 07:10:44;;;;;;;2.27;1.40;;;22.30;47.30;;;;;;5029911;28;20237;-82
2021/05/09 07:13:10;;;;;;;2.33;1.47;;;22.30;47.30;;;;;;5024604;28;20422;-84
2021/05/09 07:15:38;;;;;;;1.83;1.43;;;22.30;47.30;;;;;;5003476;28;20463;-84
2021/05/09 07:18:09;;;;;;;1.83;1.30;;;22.30;47.40;;;;;;5041610;28;20410;-82
2021/05/09 07:20:37;;;;;;;2.40;1.33;;;22.30;47.40;;;;;;5028630;28;20414;-82
2021/05/09 07:23:05;;;;;;;2.07;1.30;;;22.30;47.40;;;;;;5028574;28;20435;-82
2021/05/09 07:25:32;;;;;;;2.50;1.27;;;22.30;47.40;;;;;;5027318;28;20943;-82
2021/05/09 07:28:12;;;;;;;2.20;1.40;;;22.20;47.40;;;;;;5028136;28;20471;-82
2021/05/09 07:30:39;;;;;;;2.57;1.40;;;22.30;47.40;;;;;;5052746;28;20461;-82
2021/05/09 07:33:05;;;;;;;1.93;1.30;;;22.30;47.50;;;;;;5035264;28;20418;-82
2021/05/09 07:35:33;;;;;;;2.93;1.30;;;22.20;47.40;;;;;;5053118;28;20464;-82
2021/05/09 07:38:07;;;;;;;2.00;1.80;;;22.20;47.40;;;;;;5035106;28;20437;-81
2021/05/09 07:40:33;;;;;;;2.47;1.63;;;22.30;47.50;;;;;;5034591;28;20516;-84
2021/05/09 07:43:01;;;;;;;1.90;1.53;;;22.20;47.50;;;;;;5034106;28;20410;-83
2021/05/09 07:45:43;;;;;;;2.77;1.60;;;22.20;47.50;;;;;;5051985;28;20410;-81
2021/05/09 07:48:09;;;;;;;2.60;1.47;;;22.30;47.60;;;;;;5048975;28;20417;-82
2021/05/09 07:50:37;;;;;;;2.80;1.40;;;22.20;47.60;;;;;;5030490;28;20468;-82
2021/05/09 07:53:04;;;;;;;2.50;1.30;;;22.30;47.50;;;;;;5040373;28;20421;-82
2021/05/09 07:55:31;;;;;;;2.40;1.60;;;22.20;47.60;;;;;;5029460;28;20462;-82
2021/05/09 07:57:57;;;;;;;1.70;1.20;;;22.20;47.60;;;;;;5046933;28;20820;-82
2021/05/09 08:00:24;;;;;;;3.03;1.80;;;22.20;47.60;;;;;;5043993;28;20407;-82
2021/05/09 08:02:52;;;;;;;1.83;1.43;;;22.20;47.60;;;;;;5047090;28;20414;-83
2021/05/09 08:05:36;;;;;;;2.20;1.57;;;22.20;47.70;;;;;;5045418;28;20429;-83
2021/05/09 08:08:06;;;;;;;2.47;1.47;;;22.30;47.70;;;;;;5045511;28;20891;-81
2021/05/09 08:10:36;;;;;;;5.43;1.53;;;22.20;47.70;;;;;;5042568;28;20419;-81
2021/05/09 08:13:07;;;;;;;2.43;1.53;;;22.20;47.70;;;;;;5034321;28;20417;-83
2021/05/09 08:15:33;;;;;;;2.97;1.50;;;22.20;47.70;;;;;;5048486;28;20458;-82
2021/05/09 08:18:02;;;;;;;2.30;1.60;;;22.20;47.70;;;;;;5032284;28;20739;-82
2021/05/09 08:20:29;;;;;;;1.47;1.13;;;22.30;47.80;;;;;;5037797;28;20962;-81
2021/05/09 08:23:07;;;;;;;1.60;1.47;;;22.20;47.70;;;;;;5028990;28;20418;-82
2021/05/09 08:25:35;;;;;;;2.30;1.37;;;22.30;47.80;;;;;;5034438;28;20430;-82
2021/05/09 08:28:01;;;;;;;1.60;1.30;;;22.20;47.70;;;;;;5041022;28;20448;-82
2021/05/09 08:30:30;;;;;;;1.90;1.30;;;22.20;47.70;;;;;;5037359;28;20419;-81
2021/05/09 08:32:56;;;;;;;2.50;2.03;;;22.20;47.70;;;;;;5031059;28;20197;-84
2021/05/09 08:35:22;;;;;;;2.90;1.60;;;22.20;47.70;;;;;;5043769;28;20487;-81
2021/05/09 08:37:47;;;;;;;1.67;1.50;;;22.20;47.80;;;;;;5020423;28;20203;-81
2021/05/09 08:40:28;;;;;;;1.80;1.40;;;22.20;47.80;;;;;;5022924;28;20180;-81
2021/05/09 08:46:28;;;;;;;1.57;1.47;;;22.20;47.70;;;;;;5043601;28;20391;-82
2021/05/09 08:48:56;;;;;;;1.97;1.50;;;22.20;47.80;;;;;;5039357;28;20901;-82
2021/05/09 08:52:06;;;;;;;1.60;1.33;;;22.20;47.80;;;;;;5038903;28;20419;-81
2021/05/09 08:55:08;;;;;;;3.20;1.40;;;22.30;47.90;;;;;;4959731;29;20419;-87
2021/05/09 08:57:34;;;;;;;2.10;1.20;;;22.20;47.90;;;;;;4926898;29;20422;-84
2021/05/09 09:00:00;;;;;;;2.97;1.70;;;22.10;47.80;;;;;;4951293;28;20436;-83
2021/05/09 09:02:26;;;;;;;3.43;1.47;;;22.20;47.80;;;;;;4952578;29;20199;-82
2021/05/09 09:04:54;;;;;;;8.20;2.47;;;22.20;48.00;;;;;;4970101;28;20430;-87
2021/05/09 09:07:54;;;;;;;2.80;1.27;;;22.20;48.00;;;;;;4953088;29;20414;-89
2021/05/09 09:10:40;;;;;;;2.40;1.70;;;22.20;48.00;;;;;;4945969;29;20434;-82
2021/05/09 09:13:30;;;;;;;2.00;1.30;;;22.20;48.00;;;;;;4945382;28;20417;-85
2021/05/09 09:16:04;;;;;;;2.30;1.10;;;22.20;47.90;;;;;;4964422;28;20512;-84
2021/05/09 09:18:43;;;;;;;1.47;1.13;;;22.20;47.80;;;;;;4961147;28;20464;-84
2021/05/09 09:21:24;;;;;;;3.90;1.37;;;22.20;47.80;;;;;;4958981;28;20429;-84
2021/05/09 09:24:03;;;;;;;2.83;1.60;;;22.10;47.80;;;;;;4961808;28;20437;-84
2021/05/09 09:26:50;;;;;;;1.90;1.40;;;22.10;47.90;;;;;;4966184;28;20429;-85
2021/05/09 09:29:36;;;;;;;2.23;1.60;;;22.20;47.80;;;;;;4958536;29;20513;-84
2021/05/09 09:32:08;;;;;;;2.10;1.33;;;22.20;47.90;;;;;;5002988;28;20418;-84
2021/05/09 09:34:50;;;;;;;3.67;1.33;;;22.10;47.80;;;;;;5031624;28;20928;-84
2021/05/09 09:37:17;;;;;;;2.97;1.53;;;22.20;47.90;;;;;;5034812;28;20411;-84
2021/05/09 09:39:54;;;;;;;1.73;1.47;;;22.10;47.90;;;;;;5028195;28;21000;-85
2021/05/09 09:42:44;;;;;;;1.40;1.10;;;22.20;47.90;;;;;;5028668;28;20453;-85
2021/05/09 09:45:17;;;;;;;1.67;1.30;;;22.10;47.70;;;;;;5032990;28;20414;-85
2021/05/09 09:48:02;;;;;;;2.30;1.43;;;22.10;47.90;;;;;;5046088;28;20481;-85
2021/05/09 09:50:51;;;;;;;1.60;1.50;;;22.10;47.80;;;;;;5035798;28;20778;-84
2021/05/09 09:53:48;;;;;;;2.80;1.30;;;22.10;47.80;;;;;;5051709;28;20410;-86
2021/05/09 09:56:17;;;;;;;1.80;1.30;;;22.10;47.80;;;;;;5051223;28;20438;-85
2021/05/09 09:58:50;;;;;;;1.20;1.10;;;22.10;47.90;;;;;;5044314;28;20411;-81
2021/05/09 10:01:23;;;;;;;2.83;1.40;;;22.10;47.90;;;;;;5027584;28;20424;-85
2021/05/09 10:03:51;;;;;;;10.97;2.03;;;22.00;47.70;;;;;;5025637;28;20415;-84
2021/05/09 10:06:17;;;;;;;2.50;1.40;;;22.10;47.90;;;;;;5043147;28;20406;-84
2021/05/09 10:08:45;;;;;;;2.43;1.60;;;22.10;47.90;;;;;;5042704;28;20445;-85
2021/05/09 10:11:11;;;;;;;1.67;1.50;;;22.00;47.80;;;;;;5043598;28;20415;-85
2021/05/09 10:13:36;;;;;;;3.47;1.40;;;22.00;47.80;;;;;;5025860;28;20410;-85
2021/05/09 10:16:03;;;;;;;2.10;1.70;;;22.10;47.90;;;;;;5026235;28;20488;-85
2021/05/09 10:18:30;;;;;;;2.43;1.20;;;22.10;47.90;;;;;;5026692;28;20266;-84
2021/05/09 10:20:58;;;;;;;1.50;1.40;;;22.10;47.90;;;;;;5045639;28;20406;-84
2021/05/09 10:23:28;;;;;;;2.23;1.43;;;22.10;47.90;;;;;;5028282;28;20473;-84
2021/05/09 10:25:56;;;;;;;1.30;1.10;;;22.00;47.90;;;;;;5027742;28;20830;-84
2021/05/09 10:28:39;;;;;;;2.00;1.33;;;22.10;48.00;;;;;;5024688;28;20426;-84
2021/05/09 10:31:06;;;;;;;3.60;1.67;;;22.10;47.90;;;;;;5026702;28;20483;-84
2021/05/09 10:33:50;;;;;;;1.70;1.30;;;22.00;47.90;;;;;;5007879;28;20506;-84
2021/05/09 10:36:19;;;;;;;1.80;1.40;;;22.00;47.90;;;;;;5008368;28;20531;-84
2021/05/09 10:39:07;;;;;;;1.70;1.20;;;22.00;47.90;;;;;;5025716;28;20912;-84
2021/05/09 10:41:37;;;;;;;2.40;1.40;;;22.10;47.90;;;;;;5007897;28;21013;-84
2021/05/09 10:44:37;;;;;;;2.50;1.20;;;22.00;47.90;;;;;;5024969;28;20419;-83
2021/05/09 10:47:05;;;;;;;1.63;1.20;;;22.00;47.90;;;;;;5027998;28;20419;-83
2021/05/09 10:49:31;;;;;;;2.07;1.70;;;22.00;48.00;;;;;;5032992;28;20434;-83
2021/05/09 10:52:00;;;;;;;3.00;1.20;;;22.00;47.90;;;;;;5039619;28;20446;-83
2021/05/09 10:54:27;;;;;;;2.43;1.53;;;22.00;48.00;;;;;;5048588;28;20414;-84
2021/05/09 10:56:53;;;;;;;1.70;1.20;;;22.00;48.00;;;;;;5026862;28;20465;-84
2021/05/09 10:59:20;;;;;;;2.63;1.17;;;22.00;48.00;;;;;;5029668;28;20175;-84
2021/05/09 11:02:05;;;;;;;2.33;1.70;;;22.00;48.00;;;;;;5027148;28;20833;-83
2021/05/09 11:04:47;;;;;;;2.67;1.60;;;22.00;47.90;;;;;;5025284;28;20996;-83
2021/05/09 11:07:43;;;;;;;1.57;1.10;;;22.00;48.00;;;;;;5028684;28;20405;-83
2021/05/09 11:10:31;;;;;;;1.87;1.30;;;22.00;47.90;;;;;;5020627;28;20420;-83
2021/05/09 11:13:07;;;;;;;2.17;1.20;;;22.00;47.90;;;;;;5028243;28;20421;-83
2021/05/09 11:15:35;;;;;;;1.40;1.10;;;22.00;48.00;;;;;;5043509;28;20457;-83
2021/05/09 11:18:12;;;;;;;1.90;1.20;;;22.00;48.00;;;;;;5019853;28;20422;-83
2021/05/09 11:20:50;;;;;;;1.73;1.10;;;22.00;48.00;;;;;;5049958;28;20482;-84
2021/05/09 11:23:18;;;;;;;2.10;1.60;;;22.00;48.00;;;;;;5032629;28;20499;-84
2021/05/09 11:25:45;;;;;;;1.63;1.10;;;22.00;48.10;;;;;;5026291;28;20415;-83
2021/05/09 11:28:11;;;;;;;1.20;1.10;;;22.00;48.00;;;;;;5047488;28;20452;-84
2021/05/09 11:30:37;;;;;;;1.37;1.20;;;22.00;48.00;;;;;;5048195;28;20435;-84
2021/05/09 11:33:04;;;;;;;1.73;1.10;;;22.00;48.00;;;;;;5039317;28;20190;-84
2021/05/09 11:35:39;;;;;;;2.37;1.40;;;22.00;48.00;;;;;;5018361;28;20456;-84
2021/05/09 11:38:16;;;;;;;2.03;1.20;;;22.00;48.00;;;;;;5020051;28;20414;-84
2021/05/09 11:40:43;;;;;;;1.50;1.17;;;22.00;48.00;;;;;;5028614;28;20405;-84
2021/05/09 11:43:13;;;;;;;2.30;1.30;;;21.90;48.00;;;;;;5027744;28;20484;-83
2021/05/09 11:45:39;;;;;;;1.70;1.20;;;22.00;48.00;;;;;;5040650;28;20486;-83
2021/05/09 11:48:05;;;;;;;2.67;1.40;;;21.90;48.00;;;;;;5039522;28;20452;-83
2021/05/09 11:50:31;;;;;;;2.17;1.33;;;22.00;48.10;;;;;;5038831;28;20184;-84
2021/05/09 11:52:57;;;;;;;1.50;1.30;;;22.00;48.10;;;;;;5015382;28;20422;-84
2021/05/09 11:55:23;;;;;;;1.70;1.40;;;22.00;48.00;;;;;;5037393;28;20269;-84
2021/05/09 11:57:48;;;;;;;1.50;1.00;;;22.00;48.00;;;;;;5046421;28;20607;-84
2021/05/09 12:00:16;;;;;;;3.17;1.33;;;21.90;47.90;;;;;;5025970;28;20179;-84
2021/05/09 12:02:47;;;;;;;1.80;1.20;;;22.00;47.90;;;;;;5053961;28;20168;-83
2021/05/09 12:05:18;;;;;;;1.40;0.93;;;21.90;47.80;;;;;;5057547;28;20409;-84
2021/05/09 12:07:53;;;;;;;3.00;1.03;;;22.00;47.90;;;;;;5050781;28;20417;-83
2021/05/09 12:10:30;;;;;;;1.87;1.20;;;21.90;47.90;;;;;;5053239;28;20503;-84
2021/05/09 12:12:56;;;;;;;1.27;1.10;;;22.00;48.00;;;;;;5050765;28;20421;-84
2021/05/09 12:15:23;;;;;;;1.30;1.20;;;21.90;47.90;;;;;;5051011;28;20464;-83
2021/05/09 12:17:58;;;;;;;1.50;1.13;;;22.00;48.00;;;;;;5053271;28;20882;-83
2021/05/09 12:20:36;;;;;;;2.00;1.13;;;22.00;48.00;;;;;;5051135;28;20411;-83
2021/05/09 12:23:10;;;;;;;3.40;1.63;;;22.00;48.00;;;;;;5023246;28;20483;-84
2021/05/09 12:25:51;;;;;;;1.20;1.10;;;21.90;48.00;;;;;;5052747;28;20421;-83
2021/05/09 12:28:31;;;;;;;1.70;1.10;;;21.90;47.90;;;;;;5068790;28;20424;-84
2021/05/09 12:31:12;;;;;;;1.40;1.20;;;21.90;48.00;;;;;;5066977;28;20883;-83
2021/05/09 12:33:38;;;;;;;1.23;1.10;;;22.00;48.00;;;;;;5037975;28;20429;-84
2021/05/09 12:36:16;;;;;;;1.60;1.10;;;21.90;47.90;;;;;;5047159;28;20446;-84
2021/05/09 12:45:33;;;;;;;1.70;1.20;;;21.90;48.00;;;;;;4964902;28;20429;-84
2021/05/09 12:48:04;;;;;;;1.10;1.00;;;21.90;48.10;;;;;;5046918;28;20402;-84
2021/05/09 12:50:45;;;;;;;1.23;1.03;;;21.90;48.00;;;;;;5046958;28;20414;-84
2021/05/09 12:53:11;;;;;;;1.63;1.10;;;21.90;48.00;;;;;;5029482;28;20493;-84
2021/05/09 12:55:36;;;;;;;1.63;1.10;;;21.90;48.10;;;;;;5029386;28;20481;-84
2021/05/09 12:58:06;;;;;;;1.67;1.50;;;21.90;48.00;;;;;;5047117;28;20422;-84
2021/05/09 13:00:32;;;;;;;1.80;1.10;;;21.90;48.00;;;;;;5041257;28;20673;-84
2021/05/09 13:02:58;;;;;;;1.30;1.00;;;21.90;48.10;;;;;;5011455;28;20411;-84
2021/05/09 13:05:25;;;;;;;3.00;0.90;;;21.90;48.00;;;;;;5026807;28;20418;-83
2021/05/09 13:07:51;;;;;;;1.40;1.10;;;21.90;48.00;;;;;;5046523;28;20638;-84
2021/05/09 13:10:21;;;;;;;1.30;1.00;;;22.00;48.10;;;;;;5027391;28;20893;-83
2021/05/09 13:12:53;;;;;;;1.83;1.27;;;21.90;48.00;;;;;;5027706;28;20399;-83
2021/05/09 13:15:19;;;;;;;1.27;1.10;;;21.90;48.00;;;;;;5012130;28;20459;-83
2021/05/09 13:17:45;;;;;;;1.20;1.10;;;21.90;48.00;;;;;;5011127;28;20454;-84
2021/05/09 13:20:12;;;;;;;1.33;1.03;;;21.90;48.00;;;;;;5046239;28;20395;-84
2021/05/09 13:22:38;;;;;;;1.63;1.03;;;21.90;48.10;;;;;;5029675;28;20450;-84
2021/05/09 13:25:05;;;;;;;1.40;1.00;;;21.90;48.10;;;;;;5065161;28;20398;-85
2021/05/09 13:27:32;;;;;;;1.30;1.20;;;21.90;48.00;;;;;;5065974;28;20178;-84
2021/05/09 13:30:03;;;;;;;1.33;1.10;;;21.90;48.00;;;;;;5064815;28;20417;-84
2021/05/09 13:32:30;;;;;;;1.57;1.17;;;21.90;48.00;;;;;;5031183;28;20438;-84